SLRS weather

Rio Seco Airport
Campo Ingelmeco, Santa Cruz Department, Bolivia

Public forecast

Using degrees Celsius for public forecast. Weather courtesy of forecast.io.

Closest aviation weather report (METAR) to Rio Seco Airport

Report is more than 2 hours old.

Closest report is El Trompillo Airport, 23.9 nm (44.2 km) NNE. Retrieved 2020/02/26 23:00 UTC (3 hours ago):

SLET 262300Z 17009KT 9999 SCT080 OVC200 26/21 Q1013

Closest aviation forecast (TAF) to Rio Seco Airport

Closest forecast is El Trompillo Airport, 23.9 nm (44.2 km) NNE. Retrieved 2020-02-27 00:54 UTC (44 minutes ago):

TAF SLET 262200Z 2700/2724 17015KT 9999 BKN023 BKN080 TX30/2719Z TN22 /2710Z TEMPO 2711/2713 18015KT SCT023 BECMG 2721/2723 18005KT NSC